createdAt,value
2018-11-29T00:02:04.822Z,96368.44
2018-11-29T00:04:39.486Z,96360.80
2018-11-29T00:07:14.612Z,96365.87
2018-11-29T00:09:49.316Z,96370.31
2018-11-29T00:12:23.844Z,96370.58
2018-11-29T00:14:58.678Z,96376.55
2018-11-29T00:17:33.150Z,96378.95
2018-11-29T00:20:10.893Z,96373.43
2018-11-29T00:22:46.654Z,96377.86
2018-11-29T00:25:21.814Z,96378.52
2018-11-29T00:27:56.414Z,96388.61
2018-11-29T00:30:31.410Z,96379.63
2018-11-29T00:33:08.796Z,96386.27
2018-11-29T00:35:43.235Z,96390.77
2018-11-29T00:38:17.779Z,96387.45
2018-11-29T00:40:52.288Z,96376.30
2018-11-29T00:43:26.744Z,96376.55
2018-11-29T00:46:01.703Z,96376.16
2018-11-29T00:48:36.215Z,96370.61
2018-11-29T00:51:10.819Z,96369.33
2018-11-29T00:53:45.226Z,96370.22
2018-11-29T00:56:19.745Z,96358.95
2018-11-29T00:58:54.686Z,96355.55
2018-11-29T01:01:29.131Z,96360.45
2018-11-29T01:04:16.104Z,96358.73
2018-11-29T01:06:51.169Z,96361.39
2018-11-29T01:09:25.792Z,96367.55
2018-11-29T01:12:00.681Z,96376.91
2018-11-29T01:14:35.033Z,96383.95
2018-11-29T01:17:09.792Z,96382.74
2018-11-29T01:19:44.590Z,96380.96
2018-11-29T01:22:19.368Z,96389.85
2018-11-29T01:24:53.790Z,96384.94
2018-11-29T01:27:28.611Z,96381.54
2018-11-29T01:30:03.318Z,96380.08
2018-11-29T01:32:38.405Z,96375.61
2018-11-29T01:35:15.082Z,96396.13
2018-11-29T01:37:50.392Z,96391.62
2018-11-29T01:40:25.367Z,96391.36
2018-11-29T01:43:00.180Z,96385.39
2018-11-29T01:45:43.579Z,96383.16
2018-11-29T01:48:18.123Z,96373.73
2018-11-29T01:50:52.640Z,96361.33
2018-11-29T01:53:31.990Z,96345.47
2018-11-29T01:56:07.487Z,96340.14
2018-11-29T01:58:42.400Z,96347.14
2018-11-29T02:01:17.596Z,96339.77
2018-11-29T02:03:52.207Z,96339.42
2018-11-29T02:06:27.195Z,96336.39
2018-11-29T02:09:01.554Z,96340.33
2018-11-29T02:11:35.990Z,96348.19
2018-11-29T02:14:10.963Z,96361.20
2018-11-29T02:16:45.655Z,96351.75
2018-11-29T02:19:20.419Z,96339.70
2018-11-29T02:21:54.819Z,96344.39
2018-11-29T02:24:29.815Z,96348.19
2018-11-29T02:27:04.431Z,96356.36
2018-11-29T02:29:39.259Z,96348.17
2018-11-29T02:32:13.738Z,96339.34
2018-11-29T02:34:48.411Z,96341.73
2018-11-29T02:37:22.926Z,96348.02
2018-11-29T02:39:57.576Z,96335.55
2018-11-29T02:42:32.352Z,96329.25
2018-11-29T02:45:09.482Z,96315.57
2018-11-29T02:47:43.868Z,96310.09
2018-11-29T02:50:19.587Z,96307.97
2018-11-29T02:52:54.031Z,96315.56
2018-11-29T02:55:28.909Z,96308.86
2018-11-29T02:58:04.608Z,96310.25
2018-11-29T03:00:39.748Z,96308.05
2018-11-29T03:03:37.290Z,96309.44
2018-11-29T03:06:11.915Z,96307.74
2018-11-29T03:08:46.479Z,96302.63
2018-11-29T03:11:20.921Z,96304.20
2018-11-29T03:13:55.668Z,96307.94
2018-11-29T03:16:30.036Z,96314.06
2018-11-29T03:19:04.800Z,96320.19
2018-11-29T03:21:39.490Z,96318.48
2018-11-29T03:24:14.422Z,96314.33
2018-11-29T03:26:49.158Z,96313.36
2018-11-29T03:29:23.582Z,96312.48
2018-11-29T03:31:58.323Z,96311.84
2018-11-29T03:34:33.335Z,96301.06
2018-11-29T03:37:08.524Z,96305.13
2018-11-29T03:39:44.126Z,96295.53
2018-11-29T03:42:19.732Z,96285.42
2018-11-29T03:44:54.519Z,96283.27
2018-11-29T03:47:29.024Z,96289.09
2018-11-29T03:50:03.873Z,96283.81
2018-11-29T03:52:38.223Z,96272.78
2018-11-29T03:55:13.111Z,96273.20
2018-11-29T03:57:47.759Z,96262.98
2018-11-29T04:00:22.975Z,96256.80
2018-11-29T04:02:57.584Z,96248.88
2018-11-29T04:05:32.063Z,96243.31
2018-11-29T04:08:07.041Z,96240.34
2018-11-29T04:10:41.938Z,96235.50
2018-11-29T04:13:16.923Z,96234.73
2018-11-29T04:15:51.866Z,96227.20
2018-11-29T04:18:26.302Z,96234.12
2018-11-29T04:21:00.976Z,96229.53
2018-11-29T04:23:35.495Z,96228.70
2018-11-29T04:26:10.407Z,96233.45
2018-11-29T04:28:44.835Z,96229.77
2018-11-29T04:31:19.622Z,96232.75
2018-11-29T04:33:54.356Z,96233.30
2018-11-29T04:36:29.220Z,96227.64
2018-11-29T04:39:04.313Z,96226.67
2018-11-29T04:41:38.895Z,96235.14
2018-11-29T04:44:14.028Z,96231.36
2018-11-29T04:46:49.496Z,96235.91
2018-11-29T04:49:23.787Z,96240.85
2018-11-29T04:51:58.110Z,96228.33
2018-11-29T04:54:32.449Z,96238.20
2018-11-29T04:57:06.899Z,96247.25
2018-11-29T04:59:42.135Z,96243.66
2018-11-29T05:02:17.375Z,96235.45
2018-11-29T05:04:52.132Z,96222.27
2018-11-29T05:07:26.775Z,96222.82
2018-11-29T05:10:01.401Z,96223.29
2018-11-29T05:12:36.591Z,96220.78
2018-11-29T05:15:12.263Z,96218.58
2018-11-29T05:17:46.613Z,96221.45
2018-11-29T05:20:21.296Z,96208.95
2018-11-29T05:22:55.850Z,96209.09
2018-11-29T05:25:30.380Z,96203.72
2018-11-29T05:28:05.479Z,96202.50
2018-11-29T05:30:40.315Z,96194.95
2018-11-29T05:33:14.719Z,96194.41
2018-11-29T05:35:49.035Z,96185.22
2018-11-29T05:38:23.951Z,96183.70
2018-11-29T05:40:58.982Z,96188.70
2018-11-29T05:43:33.422Z,96193.35
2018-11-29T05:46:08.360Z,96196.98
2018-11-29T05:48:43.170Z,96202.35
2018-11-29T05:51:17.462Z,96205.39
2018-11-29T05:53:51.963Z,96201.47
2018-11-29T05:56:26.713Z,96205.59
2018-11-29T05:59:01.088Z,96211.22
2018-11-29T06:01:44.069Z,96213.61
2018-11-29T06:04:18.669Z,96215.52
2018-11-29T06:06:53.031Z,96213.61
2018-11-29T06:09:27.600Z,96209.95
2018-11-29T06:12:02.667Z,96209.06
2018-11-29T06:14:37.274Z,96211.52
2018-11-29T06:17:11.640Z,96213.61
2018-11-29T06:19:46.251Z,96216.29
2018-11-29T06:22:20.860Z,96205.17
2018-11-29T06:24:55.282Z,96202.85
2018-11-29T06:27:29.790Z,96201.38
2018-11-29T06:30:04.788Z,96200.66
2018-11-29T06:32:39.363Z,96206.13
2018-11-29T06:35:14.195Z,96214.06
2018-11-29T06:37:48.571Z,96208.22
2018-11-29T06:40:23.002Z,96200.14
2018-11-29T06:42:57.922Z,96196.30
2018-11-29T06:45:33.314Z,96197.28
2018-11-29T06:48:07.916Z,96198.37
2018-11-29T06:50:42.321Z,96204.13
2018-11-29T06:53:23.205Z,96210.58
2018-11-29T06:55:58.943Z,96203.91
2018-11-29T06:58:33.300Z,96205.58
2018-11-29T07:01:07.781Z,96207.38
2018-11-29T07:03:43.330Z,96202.91
2018-11-29T07:06:17.168Z,96206.22
2018-11-29T07:08:51.535Z,96203.05
2018-11-29T07:11:26.222Z,96189.75
2018-11-29T07:14:00.758Z,96181.27
2018-11-29T07:16:35.454Z,96181.44
2018-11-29T07:19:14.905Z,96182.59
2018-11-29T07:21:59.609Z,96179.03
2018-11-29T07:24:34.311Z,96177.88
2018-11-29T07:27:09.023Z,96166.02
2018-11-29T07:29:44.060Z,96166.44
2018-11-29T07:32:22.891Z,96167.58
2018-11-29T07:34:57.196Z,96167.29
2018-11-29T07:37:31.975Z,96170.70
2018-11-29T07:40:10.286Z,96169.86
2018-11-29T07:42:45.794Z,96172.66
2018-11-29T07:45:20.837Z,96180.86
2018-11-29T07:47:55.338Z,96178.38
2018-11-29T07:50:29.666Z,96175.76
2018-11-29T07:53:04.630Z,96170.42
2018-11-29T07:55:39.584Z,96172.22
2018-11-29T07:58:14.654Z,96169.81
2018-11-29T08:00:49.042Z,96173.91
2018-11-29T08:03:23.399Z,96172.53
2018-11-29T08:05:57.843Z,96167.53
2018-11-29T08:08:32.737Z,96167.73
2018-11-29T08:11:11.473Z,96164.61
2018-11-29T08:13:46.003Z,96152.22
2018-11-29T08:16:20.687Z,96154.36
2018-11-29T08:18:55.032Z,96152.92
2018-11-29T08:21:29.910Z,96150.11
2018-11-29T08:24:04.312Z,96150.11
2018-11-29T08:26:38.687Z,96146.28
2018-11-29T08:29:13.502Z,96142.66
2018-11-29T08:31:47.918Z,96140.56
2018-11-29T08:34:22.243Z,96142.48
2018-11-29T08:36:56.990Z,96143.48
2018-11-29T08:39:31.426Z,96142.80
2018-11-29T08:42:06.322Z,96143.41
2018-11-29T08:44:41.095Z,96147.41
2018-11-29T08:47:15.391Z,96142.55
2018-11-29T08:50:01.083Z,96133.18
2018-11-29T08:52:36.549Z,96134.84
2018-11-29T08:55:14.780Z,96127.14
2018-11-29T08:57:50.192Z,96118.79
2018-11-29T09:00:24.962Z,96111.05
2018-11-29T09:02:59.604Z,96111.64
2018-11-29T09:05:34.216Z,96106.13
2018-11-29T09:08:08.855Z,96101.58
2018-11-29T09:10:43.560Z,96096.23
2018-11-29T09:13:18.039Z,96097.77
2018-11-29T09:15:52.801Z,96102.69
2018-11-29T09:18:27.228Z,96101.01
2018-11-29T09:21:01.966Z,96102.41
2018-11-29T09:23:36.822Z,96100.20
2018-11-29T09:26:11.320Z,96097.58
2018-11-29T09:28:46.439Z,96085.25
2018-11-29T09:31:21.482Z,96075.94
2018-11-29T09:33:56.091Z,96086.98
2018-11-29T09:36:30.470Z,96086.98
2018-11-29T09:39:08.717Z,96081.50
2018-11-29T09:41:43.627Z,96079.02
2018-11-29T09:44:18.226Z,96076.97
2018-11-29T09:46:52.837Z,96075.47
2018-11-29T09:49:27.671Z,96070.70
2018-11-29T09:52:02.543Z,96060.89
2018-11-29T09:54:37.078Z,96059.09
2018-11-29T09:57:11.374Z,96062.84
2018-11-29T09:59:46.260Z,96051.43
2018-11-29T10:02:21.076Z,96048.38
2018-11-29T10:04:55.356Z,96038.06
2018-11-29T10:07:30.347Z,96030.17
2018-11-29T10:10:06.401Z,96023.88
2018-11-29T10:12:41.681Z,96024.08
2018-11-29T10:15:16.673Z,96016.86
2018-11-29T10:17:51.687Z,96016.55
2018-11-29T10:20:26.389Z,96013.62
2018-11-29T10:23:01.179Z,96013.52
2018-11-29T10:25:36.587Z,96020.52
2018-11-29T10:28:12.775Z,96024.48
2018-11-29T10:30:52.994Z,96022.37
2018-11-29T10:33:27.842Z,96018.88
2018-11-29T10:36:02.715Z,96021.53
2018-11-29T10:38:37.243Z,96017.70
2018-11-29T10:41:12.910Z,96019.78
2018-11-29T10:43:46.779Z,96013.51
2018-11-29T10:46:21.131Z,96013.25
2018-11-29T10:48:55.948Z,96008.00
2018-11-29T10:51:30.235Z,95997.50
2018-11-29T10:54:05.062Z,95997.97
2018-11-29T10:56:39.612Z,96002.26
2018-11-29T10:59:14.363Z,95991.28
2018-11-29T11:01:54.387Z,95984.05
2018-11-29T11:04:28.943Z,95983.90
2018-11-29T11:07:03.280Z,95987.88
2018-11-29T11:09:37.788Z,95982.74
2018-11-29T11:12:12.533Z,95982.77
2018-11-29T11:14:47.313Z,95985.91
2018-11-29T11:17:23.300Z,95982.15
2018-11-29T11:19:58.179Z,95974.82
2018-11-29T11:22:32.734Z,95960.33
2018-11-29T11:25:09.831Z,95963.80
2018-11-29T11:27:44.283Z,95958.45
2018-11-29T11:30:20.667Z,95945.45
2018-11-29T11:32:59.418Z,95949.43
2018-11-29T11:35:42.037Z,95952.00
2018-11-29T11:38:16.431Z,95948.54
2018-11-29T11:40:50.995Z,95946.05
2018-11-29T11:43:25.888Z,95945.28
2018-11-29T11:46:00.394Z,95932.14
2018-11-29T11:48:34.823Z,95925.47
2018-11-29T11:51:09.698Z,95924.88
2018-11-29T11:53:45.221Z,95926.32
2018-11-29T11:56:20.256Z,95923.20
2018-11-29T11:58:56.304Z,95925.77
2018-11-29T12:01:31.432Z,95923.28
2018-11-29T12:04:06.891Z,95904.88
2018-11-29T12:06:41.447Z,95893.95
2018-11-29T12:09:16.352Z,95888.48
2018-11-29T12:11:52.998Z,95890.66
2018-11-29T12:14:27.479Z,95895.43
2018-11-29T12:17:01.953Z,95891.94
2018-11-29T12:19:36.820Z,95895.33
2018-11-29T12:22:11.635Z,95888.77
2018-11-29T12:24:46.565Z,95888.69
2018-11-29T12:27:21.086Z,95884.91
2018-11-29T12:29:55.942Z,95892.87
2018-11-29T12:32:30.234Z,95901.08
2018-11-29T12:35:05.131Z,95894.73
2018-11-29T12:37:39.914Z,95894.35
2018-11-29T12:40:15.413Z,95882.62
2018-11-29T12:42:50.593Z,95890.47
2018-11-29T12:45:24.912Z,95888.08
2018-11-29T12:47:59.550Z,95881.17
2018-11-29T12:50:41.113Z,95877.98
2018-11-29T12:53:15.475Z,95875.20
2018-11-29T12:55:49.911Z,95886.84
2018-11-29T12:58:24.236Z,95884.41
2018-11-29T13:00:58.750Z,95870.64
2018-11-29T13:03:33.428Z,95863.12
2018-11-29T13:06:08.039Z,95863.80
2018-11-29T13:08:42.550Z,95855.00
2018-11-29T13:11:17.742Z,95854.16
2018-11-29T13:13:52.773Z,95856.50
2018-11-29T13:16:27.401Z,95846.75
2018-11-29T13:19:02.191Z,95842.75
2018-11-29T13:21:36.799Z,95841.84
2018-11-29T13:24:11.192Z,95841.63
2018-11-29T13:26:45.719Z,95844.88
2018-11-29T13:29:20.228Z,95836.21
2018-11-29T13:31:55.170Z,95839.02
2018-11-29T13:34:29.985Z,95837.98
2018-11-29T13:37:04.964Z,95834.97
2018-11-29T13:39:39.738Z,95831.05
2018-11-29T13:42:14.183Z,95832.56
2018-11-29T13:44:48.659Z,95830.74
2018-11-29T13:47:23.503Z,95834.68
2018-11-29T13:49:58.128Z,95826.92
2018-11-29T13:52:32.899Z,95832.19
2018-11-29T13:55:08.689Z,95826.70
2018-11-29T13:57:45.111Z,95822.59
2018-11-29T14:00:21.953Z,95823.73
2018-11-29T14:03:01.582Z,95820.88
2018-11-29T14:05:36.775Z,95818.11
2018-11-29T14:08:11.458Z,95821.28
2018-11-29T14:10:51.391Z,95819.44
2018-11-29T14:13:26.008Z,95817.22
2018-11-29T14:16:00.763Z,95808.95
2018-11-29T14:18:35.259Z,95810.76
2018-11-29T14:21:09.855Z,95806.73
2018-11-29T14:23:44.321Z,95808.53
2018-11-29T14:26:18.747Z,95806.70
2018-11-29T14:28:53.535Z,95803.37
2018-11-29T14:31:28.486Z,95803.10
2018-11-29T14:34:03.079Z,95803.88
2018-11-29T14:36:37.676Z,95809.39
2018-11-29T14:39:12.637Z,95805.42
2018-11-29T14:41:47.270Z,95804.67
2018-11-29T14:44:21.811Z,95800.10
2018-11-29T14:46:56.436Z,95798.11
2018-11-29T14:49:30.755Z,95792.41
2018-11-29T14:52:06.000Z,95794.23
2018-11-29T14:54:40.531Z,95791.73
2018-11-29T14:57:15.471Z,95784.08
2018-11-29T14:59:50.292Z,95792.36
2018-11-29T15:02:24.788Z,95800.83
2018-11-29T15:04:59.311Z,95798.35
2018-11-29T15:07:34.206Z,95798.23
2018-11-29T15:10:10.337Z,95798.82
2018-11-29T15:12:45.310Z,95790.79
2018-11-29T15:15:19.840Z,95797.70
2018-11-29T15:17:54.832Z,95797.12
2018-11-29T15:20:33.799Z,95798.50
2018-11-29T15:23:09.614Z,95798.97
2018-11-29T15:25:44.746Z,95797.91
2018-11-29T15:28:19.515Z,95803.87
2018-11-29T15:30:54.055Z,95796.87
2018-11-29T15:33:28.803Z,95798.41
2018-11-29T15:36:04.050Z,95794.08
2018-11-29T15:38:38.406Z,95797.25
2018-11-29T15:41:18.051Z,95802.02
2018-11-29T15:43:47.606Z,95807.98
2018-11-29T15:46:22.145Z,95803.09
2018-11-29T15:48:56.600Z,95805.98
2018-11-29T15:51:31.419Z,95810.20
2018-11-29T15:54:07.095Z,95799.59
2018-11-29T15:56:41.823Z,95802.16
2018-11-29T15:59:16.286Z,95795.20
2018-11-29T16:01:51.151Z,95797.77
2018-11-29T16:04:25.875Z,95796.13
2018-11-29T16:07:00.745Z,95794.95
2018-11-29T16:09:35.136Z,95798.68
2018-11-29T16:12:09.512Z,95793.56
2018-11-29T16:14:44.325Z,95794.73
2018-11-29T16:17:19.225Z,95799.98
2018-11-29T16:19:53.754Z,95799.74
2018-11-29T16:22:28.623Z,95804.86
2018-11-29T16:25:03.813Z,95800.91
2018-11-29T16:27:38.090Z,95803.91
2018-11-29T16:30:33.902Z,95808.21
2018-11-29T16:33:25.936Z,95806.72
2018-11-29T16:36:00.721Z,95812.89
2018-11-29T16:38:35.370Z,95813.71
2018-11-29T16:41:10.197Z,95804.28
2018-11-29T16:43:44.959Z,95806.12
2018-11-29T16:46:19.522Z,95803.33
2018-11-29T16:48:54.335Z,95805.08
2018-11-29T16:51:29.219Z,95814.38
2018-11-29T16:54:03.628Z,95816.73
2018-11-29T16:56:38.071Z,95808.12
2018-11-29T16:59:12.499Z,95809.16
2018-11-29T17:01:46.811Z,95801.36
2018-11-29T17:04:21.135Z,95800.65
2018-11-29T17:06:56.336Z,95801.14
2018-11-29T17:09:30.957Z,95790.30
2018-11-29T17:12:06.211Z,95788.78
2018-11-29T17:14:40.846Z,95788.17
2018-11-29T17:17:15.323Z,95783.05
2018-11-29T17:19:49.826Z,95786.39
2018-11-29T17:22:24.307Z,95790.27
2018-11-29T17:24:58.884Z,95795.84
2018-11-29T17:27:33.558Z,95793.98
2018-11-29T17:30:17.870Z,95791.11
2018-11-29T17:32:56.606Z,95804.01
2018-11-29T17:35:31.262Z,95809.27
2018-11-29T17:38:05.950Z,95803.80
2018-11-29T17:40:40.410Z,95801.47
2018-11-29T17:43:14.904Z,95799.26
2018-11-29T17:45:49.584Z,95793.44
2018-11-29T17:48:24.334Z,95802.16
2018-11-29T17:50:59.131Z,95798.91
2018-11-29T17:53:33.677Z,95795.31
2018-11-29T17:56:08.496Z,95789.61
2018-11-29T17:58:43.314Z,95784.00
2018-11-29T18:01:18.050Z,95778.66
2018-11-29T18:03:52.570Z,95773.20
2018-11-29T18:06:26.976Z,95773.88
2018-11-29T18:09:01.460Z,95776.08
2018-11-29T18:11:35.814Z,95771.98
2018-11-29T18:14:10.250Z,95776.52
2018-11-29T18:16:44.678Z,95768.88
2018-11-29T18:19:19.399Z,95778.08
2018-11-29T18:21:53.988Z,95765.52
2018-11-29T18:24:28.175Z,95764.31
2018-11-29T18:27:02.462Z,95749.20
2018-11-29T18:29:36.915Z,95748.94
2018-11-29T18:32:11.374Z,95748.23
2018-11-29T18:34:45.806Z,95735.49
2018-11-29T18:37:20.266Z,95729.07
2018-11-29T18:39:54.595Z,95736.04
2018-11-29T18:42:29.259Z,95726.05
2018-11-29T18:45:05.143Z,95726.75
2018-11-29T18:47:39.765Z,95729.77
2018-11-29T18:50:16.783Z,95728.28
2018-11-29T18:52:51.628Z,95724.12
2018-11-29T18:55:27.354Z,95716.93
2018-11-29T18:58:02.119Z,95715.05
2018-11-29T19:00:37.573Z,95717.61
2018-11-29T19:03:12.267Z,95719.94
2018-11-29T19:05:46.571Z,95720.17
2018-11-29T19:08:21.408Z,95712.72
2018-11-29T19:10:55.885Z,95715.88
2018-11-29T19:13:30.648Z,95712.16
2018-11-29T19:16:06.369Z,95715.19
2018-11-29T19:18:40.924Z,95709.00
2018-11-29T19:21:15.425Z,95717.16
2018-11-29T19:23:50.618Z,95713.91
2018-11-29T19:26:25.234Z,95716.00
2018-11-29T19:28:59.915Z,95714.59
2018-11-29T19:31:34.479Z,95708.09
2018-11-29T19:34:09.635Z,95700.42
2018-11-29T19:36:44.428Z,95702.27
2018-11-29T19:39:18.971Z,95702.84
2018-11-29T19:41:53.519Z,95701.21
2018-11-29T19:44:27.795Z,95697.14
2018-11-29T19:47:02.220Z,95699.59
2018-11-29T19:49:36.838Z,95699.13
2018-11-29T19:52:11.511Z,95692.84
2018-11-29T19:54:46.115Z,95693.22
2018-11-29T19:57:20.739Z,95692.03
2018-11-29T19:59:55.827Z,95690.39
2018-11-29T20:02:30.575Z,95692.63
2018-11-29T20:05:05.708Z,95699.36
2018-11-29T20:07:40.195Z,95709.36
2018-11-29T20:10:18.619Z,95715.30
2018-11-29T20:12:59.957Z,95720.75
2018-11-29T20:15:36.150Z,95727.50
2018-11-29T20:18:11.743Z,95735.89
2018-11-29T20:20:46.665Z,95734.73
2018-11-29T20:23:21.118Z,95741.23
2018-11-29T20:25:55.672Z,95741.22
2018-11-29T20:28:30.552Z,95736.33
2018-11-29T20:31:06.108Z,95737.97
2018-11-29T20:33:40.643Z,95730.05
2018-11-29T20:36:15.274Z,95729.59
2018-11-29T20:38:49.735Z,95732.27
2018-11-29T20:41:24.835Z,95731.69
2018-11-29T20:43:59.614Z,95728.20
2018-11-29T20:46:34.673Z,95723.20
2018-11-29T20:49:09.589Z,95716.33
2018-11-29T20:51:44.520Z,95707.27
2018-11-29T20:54:18.998Z,95703.30
2018-11-29T20:56:53.692Z,95698.55
2018-11-29T20:59:28.226Z,95702.16
2018-11-29T21:02:02.819Z,95695.75
2018-11-29T21:04:37.285Z,95687.63
2018-11-29T21:07:11.567Z,95694.13
2018-11-29T21:09:46.027Z,95696.69
2018-11-29T21:12:20.628Z,95701.22
2018-11-29T21:14:55.610Z,95699.92
2018-11-29T21:17:30.859Z,95693.64
2018-11-29T21:20:08.593Z,95695.98
2018-11-29T21:22:45.003Z,95703.41
2018-11-29T21:25:24.091Z,95701.20
2018-11-29T21:27:58.830Z,95708.41
2018-11-29T21:30:33.617Z,95701.11
2018-11-29T21:33:09.137Z,95700.17
2018-11-29T21:35:44.016Z,95693.66
2018-11-29T21:38:21.066Z,95697.13
2018-11-29T21:41:00.875Z,95691.20
2018-11-29T21:43:35.426Z,95698.55
2018-11-29T21:46:10.427Z,95700.28
2018-11-29T21:48:45.151Z,95688.52
2018-11-29T21:51:19.626Z,95681.80
2018-11-29T21:53:54.471Z,95683.30
2018-11-29T21:56:29.380Z,95685.28
2018-11-29T21:59:03.838Z,95681.22
2018-11-29T22:01:38.844Z,95677.38
2018-11-29T22:04:13.238Z,95674.25
2018-11-29T22:06:48.107Z,95666.67
2018-11-29T22:09:22.348Z,95674.92
2018-11-29T22:11:56.786Z,95673.55
2018-11-29T22:14:31.671Z,95675.30
2018-11-29T22:17:06.000Z,95670.88
2018-11-29T22:19:40.500Z,95670.88
2018-11-29T22:22:15.586Z,95668.67
2018-11-29T22:24:49.954Z,95664.58
2018-11-29T22:27:25.160Z,95662.86
2018-11-29T22:29:59.523Z,95662.15
2018-11-29T22:32:34.291Z,95654.84
2018-11-29T22:35:09.333Z,95658.56
2018-11-29T22:37:44.067Z,95661.23
2018-11-29T22:40:19.329Z,95657.50
2018-11-29T22:42:54.130Z,95654.13
2018-11-29T22:45:29.144Z,95651.36
2018-11-29T22:48:04.530Z,95647.52
2018-11-29T22:50:39.516Z,95657.52
2018-11-29T22:53:13.974Z,95660.07
2018-11-29T22:55:48.544Z,95653.33
2018-11-29T22:58:23.223Z,95654.13
2018-11-29T23:00:57.672Z,95649.11
2018-11-29T23:03:32.331Z,95647.47
2018-11-29T23:06:07.195Z,95640.63
2018-11-29T23:08:41.651Z,95631.30
2018-11-29T23:11:16.271Z,95632.83
2018-11-29T23:13:51.063Z,95637.02
2018-11-29T23:16:25.552Z,95628.16
2018-11-29T23:19:00.374Z,95640.02
2018-11-29T23:21:34.911Z,95638.71
2018-11-29T23:24:09.459Z,95638.49
2018-11-29T23:26:43.809Z,95637.56
2018-11-29T23:29:18.268Z,95637.31
2018-11-29T23:31:53.600Z,95638.73
2018-11-29T23:34:28.422Z,95647.25
2018-11-29T23:37:03.038Z,95635.12
2018-11-29T23:39:37.441Z,95636.50
2018-11-29T23:42:11.745Z,95632.66
2018-11-29T23:44:46.499Z,95630.91
2018-11-29T23:47:21.159Z,95630.09
2018-11-29T23:49:56.222Z,95633.37
2018-11-29T23:52:30.798Z,95635.22
2018-11-29T23:55:06.890Z,95634.80
2018-11-29T23:57:41.295Z,95635.12
